sensor_id;sensor_type;location;lat;lon;timestamp;P1;durP1;ratioP1;P2;durP2;ratioP2
28587;SDS011;15787;49.662;10.162;2024-02-26T00:01:40;8.68;;;4.15;;
28587;SDS011;15787;49.662;10.162;2024-02-26T00:04:15;10.00;;;4.78;;
28587;SDS011;15787;49.662;10.162;2024-02-26T00:06:48;7.53;;;4.05;;
28587;SDS011;15787;49.662;10.162;2024-02-26T00:09:23;8.55;;;4.22;;
28587;SDS011;15787;49.662;10.162;2024-02-26T00:11:56;8.50;;;4.40;;
28587;SDS011;15787;49.662;10.162;2024-02-26T00:14:31;8.82;;;4.53;;
28587;SDS011;15787;49.662;10.162;2024-02-26T00:17:03;10.80;;;4.30;;
28587;SDS011;15787;49.662;10.162;2024-02-26T00:19:36;8.20;;;4.95;;
28587;SDS011;15787;49.662;10.162;2024-02-26T00:22:10;7.68;;;4.35;;
28587;SDS011;15787;49.662;10.162;2024-02-26T00:24:43;11.75;;;4.80;;
28587;SDS011;15787;49.662;10.162;2024-02-26T00:27:16;9.05;;;4.65;;
28587;SDS011;15787;49.662;10.162;2024-02-26T00:29:51;9.68;;;5.00;;
28587;SDS011;15787;49.662;10.162;2024-02-26T00:32:24;8.68;;;4.90;;
28587;SDS011;15787;49.662;10.162;2024-02-26T00:34:57;8.18;;;4.93;;
28587;SDS011;15787;49.662;10.162;2024-02-26T00:37:30;8.88;;;4.93;;
28587;SDS011;15787;49.662;10.162;2024-02-26T00:40:03;9.52;;;5.00;;
28587;SDS011;15787;49.662;10.162;2024-02-26T00:42:37;8.07;;;4.35;;
28587;SDS011;15787;49.662;10.162;2024-02-26T00:45:11;8.15;;;4.72;;
28587;SDS011;15787;49.662;10.162;2024-02-26T00:47:44;9.15;;;4.38;;
28587;SDS011;15787;49.662;10.162;2024-02-26T00:50:19;9.05;;;4.20;;
28587;SDS011;15787;49.662;10.162;2024-02-26T00:52:52;9.02;;;4.43;;
28587;SDS011;15787;49.662;10.162;2024-02-26T00:55:25;7.68;;;4.35;;
28587;SDS011;15787;49.662;10.162;2024-02-26T00:57:58;10.82;;;4.80;;
28587;SDS011;15787;49.662;10.162;2024-02-26T01:00:32;11.27;;;5.40;;
28587;SDS011;15787;49.662;10.162;2024-02-26T01:03:06;8.70;;;4.55;;
28587;SDS011;15787;49.662;10.162;2024-02-26T01:05:39;7.63;;;4.30;;
28587;SDS011;15787;49.662;10.162;2024-02-26T01:08:12;9.15;;;4.80;;
28587;SDS011;15787;49.662;10.162;2024-02-26T01:10:45;10.20;;;5.22;;
28587;SDS011;15787;49.662;10.162;2024-02-26T01:13:18;10.35;;;4.93;;
28587;SDS011;15787;49.662;10.162;2024-02-26T01:15:53;11.27;;;5.32;;
28587;SDS011;15787;49.662;10.162;2024-02-26T01:18:25;9.20;;;4.75;;
28587;SDS011;15787;49.662;10.162;2024-02-26T01:20:58;8.05;;;4.70;;
28587;SDS011;15787;49.662;10.162;2024-02-26T01:23:31;13.98;;;4.72;;
28587;SDS011;15787;49.662;10.162;2024-02-26T01:26:06;7.60;;;3.92;;
28587;SDS011;15787;49.662;10.162;2024-02-26T01:28:39;8.35;;;4.38;;
28587;SDS011;15787;49.662;10.162;2024-02-26T01:31:13;10.02;;;4.68;;
28587;SDS011;15787;49.662;10.162;2024-02-26T01:33:47;8.32;;;4.90;;
28587;SDS011;15787;49.662;10.162;2024-02-26T01:36:20;11.95;;;5.68;;
28587;SDS011;15787;49.662;10.162;2024-02-26T01:38:53;9.48;;;4.38;;
28587;SDS011;15787;49.662;10.162;2024-02-26T01:41:26;10.82;;;5.70;;
28587;SDS011;15787;49.662;10.162;2024-02-26T01:43:59;12.50;;;6.10;;
28587;SDS011;15787;49.662;10.162;2024-02-26T01:46:34;14.15;;;6.50;;
28587;SDS011;15787;49.662;10.162;2024-02-26T01:49:08;10.95;;;6.03;;
28587;SDS011;15787;49.662;10.162;2024-02-26T01:51:44;8.60;;;4.72;;
28587;SDS011;15787;49.662;10.162;2024-02-26T01:54:18;11.48;;;5.72;;
28587;SDS011;15787;49.662;10.162;2024-02-26T01:56:51;9.50;;;5.00;;
28587;SDS011;15787;49.662;10.162;2024-02-26T01:59:24;7.78;;;4.78;;
28587;SDS011;15787;49.662;10.162;2024-02-26T02:01:58;7.40;;;4.40;;
28587;SDS011;15787;49.662;10.162;2024-02-26T02:04:34;8.35;;;4.85;;
28587;SDS011;15787;49.662;10.162;2024-02-26T02:07:07;8.35;;;4.47;;
28587;SDS011;15787;49.662;10.162;2024-02-26T02:09:41;6.93;;;4.32;;
28587;SDS011;15787;49.662;10.162;2024-02-26T02:12:14;8.63;;;4.95;;
28587;SDS011;15787;49.662;10.162;2024-02-26T02:14:47;8.50;;;5.05;;
28587;SDS011;15787;49.662;10.162;2024-02-26T02:17:30;7.38;;;4.43;;
28587;SDS011;15787;49.662;10.162;2024-02-26T02:20:04;6.78;;;4.30;;
28587;SDS011;15787;49.662;10.162;2024-02-26T02:22:42;8.65;;;4.57;;
28587;SDS011;15787;49.662;10.162;2024-02-26T02:25:15;9.27;;;4.38;;
28587;SDS011;15787;49.662;10.162;2024-02-26T02:27:48;7.57;;;4.32;;
28587;SDS011;15787;49.662;10.162;2024-02-26T02:30:21;8.23;;;4.20;;
28587;SDS011;15787;49.662;10.162;2024-02-26T02:32:58;7.25;;;4.18;;
28587;SDS011;15787;49.662;10.162;2024-02-26T02:35:31;8.10;;;4.63;;
28587;SDS011;15787;49.662;10.162;2024-02-26T02:38:06;7.60;;;4.20;;
28587;SDS011;15787;49.662;10.162;2024-02-26T02:40:39;9.25;;;4.18;;
28587;SDS011;15787;49.662;10.162;2024-02-26T02:43:12;10.02;;;4.45;;
28587;SDS011;15787;49.662;10.162;2024-02-26T02:45:45;12.35;;;4.25;;
28587;SDS011;15787;49.662;10.162;2024-02-26T02:48:18;6.18;;;3.90;;
28587;SDS011;15787;49.662;10.162;2024-02-26T02:50:51;8.30;;;4.75;;
28587;SDS011;15787;49.662;10.162;2024-02-26T02:53:26;7.47;;;4.32;;
28587;SDS011;15787;49.662;10.162;2024-02-26T02:55:59;10.93;;;5.03;;
28587;SDS011;15787;49.662;10.162;2024-02-26T02:58:32;10.10;;;4.63;;
28587;SDS011;15787;49.662;10.162;2024-02-26T03:01:05;9.15;;;5.03;;
28587;SDS011;15787;49.662;10.162;2024-02-26T03:03:38;11.00;;;5.10;;
28587;SDS011;15787;49.662;10.162;2024-02-26T03:06:11;10.30;;;5.38;;
28587;SDS011;15787;49.662;10.162;2024-02-26T03:08:45;10.48;;;5.47;;
28587;SDS011;15787;49.662;10.162;2024-02-26T03:11:18;7.88;;;4.88;;
28587;SDS011;15787;49.662;10.162;2024-02-26T03:13:51;10.05;;;5.50;;
28587;SDS011;15787;49.662;10.162;2024-02-26T03:16:24;10.23;;;5.35;;
28587;SDS011;15787;49.662;10.162;2024-02-26T03:18:57;12.52;;;6.18;;
28587;SDS011;15787;49.662;10.162;2024-02-26T03:21:30;11.50;;;5.20;;
28587;SDS011;15787;49.662;10.162;2024-02-26T03:24:05;9.90;;;5.03;;
28587;SDS011;15787;49.662;10.162;2024-02-26T03:26:40;11.23;;;5.22;;
28587;SDS011;15787;49.662;10.162;2024-02-26T03:29:13;10.63;;;5.28;;
28587;SDS011;15787;49.662;10.162;2024-02-26T03:31:47;12.38;;;5.80;;
28587;SDS011;15787;49.662;10.162;2024-02-26T03:34:20;12.27;;;6.43;;
28587;SDS011;15787;49.662;10.162;2024-02-26T03:36:53;12.05;;;6.28;;
28587;SDS011;15787;49.662;10.162;2024-02-26T03:39:28;12.10;;;6.68;;
28587;SDS011;15787;49.662;10.162;2024-02-26T03:42:02;12.10;;;6.22;;
28587;SDS011;15787;49.662;10.162;2024-02-26T03:44:35;14.48;;;6.57;;
28587;SDS011;15787;49.662;10.162;2024-02-26T03:47:08;14.98;;;7.35;;
28587;SDS011;15787;49.662;10.162;2024-02-26T03:49:42;17.00;;;8.63;;
28587;SDS011;15787;49.662;10.162;2024-02-26T03:52:15;13.43;;;7.65;;
28587;SDS011;15787;49.662;10.162;2024-02-26T03:54:49;16.55;;;8.10;;
28587;SDS011;15787;49.662;10.162;2024-02-26T03:57:22;18.52;;;8.68;;
28587;SDS011;15787;49.662;10.162;2024-02-26T03:59:55;16.45;;;7.75;;
28587;SDS011;15787;49.662;10.162;2024-02-26T04:02:29;15.13;;;6.95;;
28587;SDS011;15787;49.662;10.162;2024-02-26T04:05:02;13.77;;;7.18;;
28587;SDS011;15787;49.662;10.162;2024-02-26T04:07:35;16.55;;;7.82;;
28587;SDS011;15787;49.662;10.162;2024-02-26T04:10:10;15.13;;;7.57;;
28587;SDS011;15787;49.662;10.162;2024-02-26T04:12:43;13.13;;;6.43;;
28587;SDS011;15787;49.662;10.162;2024-02-26T04:15:17;14.23;;;7.55;;
28587;SDS011;15787;49.662;10.162;2024-02-26T04:17:50;14.88;;;7.10;;
28587;SDS011;15787;49.662;10.162;2024-02-26T04:20:24;13.32;;;7.38;;
28587;SDS011;15787;49.662;10.162;2024-02-26T04:22:57;13.98;;;6.30;;
28587;SDS011;15787;49.662;10.162;2024-02-26T04:25:31;14.65;;;6.80;;
28587;SDS011;15787;49.662;10.162;2024-02-26T04:28:04;15.25;;;6.85;;
28587;SDS011;15787;49.662;10.162;2024-02-26T04:30:37;14.77;;;7.00;;
28587;SDS011;15787;49.662;10.162;2024-02-26T04:33:11;18.73;;;7.72;;
28587;SDS011;15787;49.662;10.162;2024-02-26T04:35:44;17.10;;;8.07;;
28587;SDS011;15787;49.662;10.162;2024-02-26T04:38:17;17.20;;;7.88;;
28587;SDS011;15787;49.662;10.162;2024-02-26T04:40:51;18.02;;;7.40;;
28587;SDS011;15787;49.662;10.162;2024-02-26T04:43:24;17.27;;;8.27;;
28587;SDS011;15787;49.662;10.162;2024-02-26T04:45:57;14.95;;;8.13;;
28587;SDS011;15787;49.662;10.162;2024-02-26T04:48:30;17.15;;;7.82;;
28587;SDS011;15787;49.662;10.162;2024-02-26T04:51:03;16.95;;;7.63;;
28587;SDS011;15787;49.662;10.162;2024-02-26T04:53:36;16.48;;;7.75;;
28587;SDS011;15787;49.662;10.162;2024-02-26T04:56:11;16.35;;;7.80;;
28587;SDS011;15787;49.662;10.162;2024-02-26T04:58:44;15.23;;;7.05;;
28587;SDS011;15787;49.662;10.162;2024-02-26T05:01:17;17.52;;;7.78;;
28587;SDS011;15787;49.662;10.162;2024-02-26T05:03:51;16.90;;;7.95;;
28587;SDS011;15787;49.662;10.162;2024-02-26T05:06:23;16.17;;;7.22;;
28587;SDS011;15787;49.662;10.162;2024-02-26T05:08:57;12.00;;;6.00;;
28587;SDS011;15787;49.662;10.162;2024-02-26T05:11:31;12.93;;;7.53;;
28587;SDS011;15787;49.662;10.162;2024-02-26T05:14:04;17.27;;;7.28;;
28587;SDS011;15787;49.662;10.162;2024-02-26T05:16:37;14.90;;;7.25;;
28587;SDS011;15787;49.662;10.162;2024-02-26T05:19:10;16.60;;;7.53;;
28587;SDS011;15787;49.662;10.162;2024-02-26T05:21:43;14.85;;;7.18;;
28587;SDS011;15787;49.662;10.162;2024-02-26T05:24:18;20.45;;;8.80;;
28587;SDS011;15787;49.662;10.162;2024-02-26T05:26:55;25.92;;;11.82;;
28587;SDS011;15787;49.662;10.162;2024-02-26T05:29:28;27.30;;;12.43;;
28587;SDS011;15787;49.662;10.162;2024-02-26T05:32:01;25.08;;;11.95;;
28587;SDS011;15787;49.662;10.162;2024-02-26T05:34:34;24.20;;;10.88;;
28587;SDS011;15787;49.662;10.162;2024-02-26T05:37:07;18.63;;;9.18;;
28587;SDS011;15787;49.662;10.162;2024-02-26T05:39:41;16.98;;;9.50;;
28587;SDS011;15787;49.662;10.162;2024-02-26T05:42:16;15.07;;;8.00;;
28587;SDS011;15787;49.662;10.162;2024-02-26T05:44:49;16.17;;;8.13;;
28587;SDS011;15787;49.662;10.162;2024-02-26T05:47:25;18.90;;;8.45;;
28587;SDS011;15787;49.662;10.162;2024-02-26T05:49:58;17.75;;;8.60;;
28587;SDS011;15787;49.662;10.162;2024-02-26T05:52:32;15.10;;;8.00;;
28587;SDS011;15787;49.662;10.162;2024-02-26T05:55:05;17.17;;;9.10;;
28587;SDS011;15787;49.662;10.162;2024-02-26T05:57:40;15.57;;;8.32;;
28587;SDS011;15787;49.662;10.162;2024-02-26T06:00:13;15.73;;;7.55;;
28587;SDS011;15787;49.662;10.162;2024-02-26T06:02:47;15.13;;;8.18;;
28587;SDS011;15787;49.662;10.162;2024-02-26T06:05:20;18.77;;;9.02;;
28587;SDS011;15787;49.662;10.162;2024-02-26T06:07:53;18.80;;;8.40;;
28587;SDS011;15787;49.662;10.162;2024-02-26T06:10:26;18.52;;;7.70;;
28587;SDS011;15787;49.662;10.162;2024-02-26T06:13:00;16.63;;;8.13;;
28587;SDS011;15787;49.662;10.162;2024-02-26T06:15:36;18.65;;;8.57;;
28587;SDS011;15787;49.662;10.162;2024-02-26T06:18:09;15.18;;;8.50;;
28587;SDS011;15787;49.662;10.162;2024-02-26T06:20:43;19.90;;;8.65;;
28587;SDS011;15787;49.662;10.162;2024-02-26T06:23:17;16.90;;;8.52;;
28587;SDS011;15787;49.662;10.162;2024-02-26T06:25:50;23.00;;;8.77;;
28587;SDS011;15787;49.662;10.162;2024-02-26T06:28:25;18.55;;;9.98;;
28587;SDS011;15787;49.662;10.162;2024-02-26T06:30:57;19.85;;;10.27;;
28587;SDS011;15787;49.662;10.162;2024-02-26T06:33:30;18.95;;;10.13;;
28587;SDS011;15787;49.662;10.162;2024-02-26T06:36:04;19.38;;;10.88;;
28587;SDS011;15787;49.662;10.162;2024-02-26T06:38:38;23.38;;;10.23;;
28587;SDS011;15787;49.662;10.162;2024-02-26T06:41:11;22.65;;;10.65;;
28587;SDS011;15787;49.662;10.162;2024-02-26T06:43:45;22.35;;;9.75;;
28587;SDS011;15787;49.662;10.162;2024-02-26T06:46:18;20.60;;;9.93;;
28587;SDS011;15787;49.662;10.162;2024-02-26T06:48:51;23.95;;;10.70;;
28587;SDS011;15787;49.662;10.162;2024-02-26T06:51:26;21.25;;;11.13;;
28587;SDS011;15787;49.662;10.162;2024-02-26T06:53:59;22.10;;;10.57;;
28587;SDS011;15787;49.662;10.162;2024-02-26T06:56:32;20.42;;;10.52;;
28587;SDS011;15787;49.662;10.162;2024-02-26T06:59:06;19.67;;;10.55;;
28587;SDS011;15787;49.662;10.162;2024-02-26T07:01:40;21.55;;;9.63;;
28587;SDS011;15787;49.662;10.162;2024-02-26T07:04:13;24.77;;;9.95;;
28587;SDS011;15787;49.662;10.162;2024-02-26T07:06:46;20.35;;;9.20;;
28587;SDS011;15787;49.662;10.162;2024-02-26T07:09:20;23.20;;;9.52;;
28587;SDS011;15787;49.662;10.162;2024-02-26T07:11:53;20.40;;;10.50;;
28587;SDS011;15787;49.662;10.162;2024-02-26T07:14:30;20.73;;;10.32;;
28587;SDS011;15787;49.662;10.162;2024-02-26T07:17:04;23.80;;;10.77;;
28587;SDS011;15787;49.662;10.162;2024-02-26T07:19:36;20.70;;;11.00;;
28587;SDS011;15787;49.662;10.162;2024-02-26T07:22:10;18.45;;;9.70;;
28587;SDS011;15787;49.662;10.162;2024-02-26T07:24:42;21.42;;;10.30;;
28587;SDS011;15787;49.662;10.162;2024-02-26T07:27:15;21.20;;;10.60;;
28587;SDS011;15787;49.662;10.162;2024-02-26T07:29:50;19.52;;;10.05;;
28587;SDS011;15787;49.662;10.162;2024-02-26T07:32:23;21.30;;;10.52;;
28587;SDS011;15787;49.662;10.162;2024-02-26T07:34:56;21.20;;;10.52;;
28587;SDS011;15787;49.662;10.162;2024-02-26T07:37:29;17.85;;;10.27;;
28587;SDS011;15787;49.662;10.162;2024-02-26T07:40:02;18.63;;;9.52;;
28587;SDS011;15787;49.662;10.162;2024-02-26T07:42:37;20.88;;;9.80;;
28587;SDS011;15787;49.662;10.162;2024-02-26T07:45:12;21.80;;;10.82;;
28587;SDS011;15787;49.662;10.162;2024-02-26T07:47:47;23.70;;;10.05;;
28587;SDS011;15787;49.662;10.162;2024-02-26T07:50:20;18.88;;;9.90;;
28587;SDS011;15787;49.662;10.162;2024-02-26T07:52:53;18.48;;;9.75;;
28587;SDS011;15787;49.662;10.162;2024-02-26T07:55:26;19.63;;;9.70;;
28587;SDS011;15787;49.662;10.162;2024-02-26T07:57:59;25.17;;;10.65;;
28587;SDS011;15787;49.662;10.162;2024-02-26T08:00:33;21.13;;;10.88;;
28587;SDS011;15787;49.662;10.162;2024-02-26T08:03:06;19.90;;;10.13;;
28587;SDS011;15787;49.662;10.162;2024-02-26T08:05:39;20.67;;;9.85;;
28587;SDS011;15787;49.662;10.162;2024-02-26T08:08:14;23.92;;;9.70;;
28587;SDS011;15787;49.662;10.162;2024-02-26T08:10:47;18.33;;;8.77;;
28587;SDS011;15787;49.662;10.162;2024-02-26T08:13:20;19.70;;;9.75;;
28587;SDS011;15787;49.662;10.162;2024-02-26T08:15:54;19.55;;;9.77;;
28587;SDS011;15787;49.662;10.162;2024-02-26T08:18:27;17.13;;;9.68;;
28587;SDS011;15787;49.662;10.162;2024-02-26T08:21:00;17.00;;;8.65;;
28587;SDS011;15787;49.662;10.162;2024-02-26T08:23:34;19.65;;;9.15;;
28587;SDS011;15787;49.662;10.162;2024-02-26T08:26:07;18.42;;;9.63;;
28587;SDS011;15787;49.662;10.162;2024-02-26T08:28:42;21.48;;;10.32;;
28587;SDS011;15787;49.662;10.162;2024-02-26T08:31:17;21.23;;;10.00;;
28587;SDS011;15787;49.662;10.162;2024-02-26T08:33:50;18.15;;;9.80;;
28587;SDS011;15787;49.662;10.162;2024-02-26T08:36:23;20.70;;;9.82;;
28587;SDS011;15787;49.662;10.162;2024-02-26T08:38:56;22.95;;;10.15;;
28587;SDS011;15787;49.662;10.162;2024-02-26T08:41:28;18.80;;;8.95;;
28587;SDS011;15787;49.662;10.162;2024-02-26T08:44:01;17.75;;;8.98;;
28587;SDS011;15787;49.662;10.162;2024-02-26T08:46:37;16.67;;;7.65;;
28587;SDS011;15787;49.662;10.162;2024-02-26T08:49:10;18.33;;;9.48;;
28587;SDS011;15787;49.662;10.162;2024-02-26T08:51:43;18.10;;;8.48;;
28587;SDS011;15787;49.662;10.162;2024-02-26T08:54:16;16.52;;;8.27;;
28587;SDS011;15787;49.662;10.162;2024-02-26T08:56:49;17.08;;;8.40;;
28587;SDS011;15787;49.662;10.162;2024-02-26T08:59:22;18.60;;;9.25;;
28587;SDS011;15787;49.662;10.162;2024-02-26T09:01:56;18.88;;;8.77;;
28587;SDS011;15787;49.662;10.162;2024-02-26T09:04:30;19.13;;;9.65;;
28587;SDS011;15787;49.662;10.162;2024-02-26T09:07:03;16.00;;;8.35;;
28587;SDS011;15787;49.662;10.162;2024-02-26T09:09:36;19.27;;;9.30;;
28587;SDS011;15787;49.662;10.162;2024-02-26T09:12:09;16.25;;;8.10;;
28587;SDS011;15787;49.662;10.162;2024-02-26T09:14:42;15.27;;;8.10;;
28587;SDS011;15787;49.662;10.162;2024-02-26T09:17:16;17.75;;;9.18;;
28587;SDS011;15787;49.662;10.162;2024-02-26T09:19:49;14.82;;;7.43;;
28587;SDS011;15787;49.662;10.162;2024-02-26T09:22:23;17.27;;;7.63;;
28587;SDS011;15787;49.662;10.162;2024-02-26T09:24:55;14.80;;;7.88;;
28587;SDS011;15787;49.662;10.162;2024-02-26T09:27:28;13.90;;;7.68;;
28587;SDS011;15787;49.662;10.162;2024-02-26T09:30:02;13.15;;;7.13;;
28587;SDS011;15787;49.662;10.162;2024-02-26T09:32:38;15.05;;;7.07;;
28587;SDS011;15787;49.662;10.162;2024-02-26T09:35:11;15.55;;;6.72;;
28587;SDS011;15787;49.662;10.162;2024-02-26T09:37:44;13.48;;;7.25;;
28587;SDS011;15787;49.662;10.162;2024-02-26T09:40:17;13.48;;;7.35;;
28587;SDS011;15787;49.662;10.162;2024-02-26T09:42:51;16.25;;;7.68;;
28587;SDS011;15787;49.662;10.162;2024-02-26T09:45:31;15.23;;;7.53;;
28587;SDS011;15787;49.662;10.162;2024-02-26T09:48:07;14.45;;;6.70;;
28587;SDS011;15787;49.662;10.162;2024-02-26T09:50:41;18.38;;;7.60;;
28587;SDS011;15787;49.662;10.162;2024-02-26T09:53:15;13.45;;;7.55;;
28587;SDS011;15787;49.662;10.162;2024-02-26T09:55:49;12.23;;;6.80;;
28587;SDS011;15787;49.662;10.162;2024-02-26T09:58:22;11.52;;;6.70;;
28587;SDS011;15787;49.662;10.162;2024-02-26T10:00:57;14.57;;;6.80;;
28587;SDS011;15787;49.662;10.162;2024-02-26T10:03:36;12.85;;;7.18;;
28587;SDS011;15787;49.662;10.162;2024-02-26T10:06:12;13.02;;;7.13;;
28587;SDS011;15787;49.662;10.162;2024-02-26T10:08:46;14.82;;;6.78;;
28587;SDS011;15787;49.662;10.162;2024-02-26T10:11:19;12.57;;;6.47;;
28587;SDS011;15787;49.662;10.162;2024-02-26T10:13:55;11.48;;;6.60;;
28587;SDS011;15787;49.662;10.162;2024-02-26T10:16:28;12.50;;;6.88;;
28587;SDS011;15787;49.662;10.162;2024-02-26T10:19:03;13.77;;;6.80;;
28587;SDS011;15787;49.662;10.162;2024-02-26T10:21:36;13.07;;;6.85;;
28587;SDS011;15787;49.662;10.162;2024-02-26T10:24:12;13.18;;;6.35;;
28587;SDS011;15787;49.662;10.162;2024-02-26T10:26:46;13.45;;;6.78;;
28587;SDS011;15787;49.662;10.162;2024-02-26T10:29:20;13.88;;;6.53;;
28587;SDS011;15787;49.662;10.162;2024-02-26T10:31:54;10.98;;;6.47;;
28587;SDS011;15787;49.662;10.162;2024-02-26T10:34:30;11.40;;;7.05;;
28587;SDS011;15787;49.662;10.162;2024-02-26T10:37:04;14.68;;;7.45;;
28587;SDS011;15787;49.662;10.162;2024-02-26T10:39:38;14.85;;;8.23;;
28587;SDS011;15787;49.662;10.162;2024-02-26T10:42:12;16.42;;;7.50;;
28587;SDS011;15787;49.662;10.162;2024-02-26T10:44:47;12.05;;;6.53;;
28587;SDS011;15787;49.662;10.162;2024-02-26T10:47:21;13.38;;;6.90;;
28587;SDS011;15787;49.662;10.162;2024-02-26T10:49:55;12.98;;;7.10;;
28587;SDS011;15787;49.662;10.162;2024-02-26T10:52:29;12.60;;;6.80;;
28587;SDS011;15787;49.662;10.162;2024-02-26T10:55:05;12.18;;;6.22;;
28587;SDS011;15787;49.662;10.162;2024-02-26T10:57:39;11.20;;;5.53;;
28587;SDS011;15787;49.662;10.162;2024-02-26T11:00:15;12.65;;;6.20;;
28587;SDS011;15787;49.662;10.162;2024-02-26T11:02:48;12.05;;;6.13;;
28587;SDS011;15787;49.662;10.162;2024-02-26T11:05:24;11.30;;;5.38;;
28587;SDS011;15787;49.662;10.162;2024-02-26T11:07:58;10.43;;;5.78;;
28587;SDS011;15787;49.662;10.162;2024-02-26T11:10:32;11.00;;;6.35;;
28587;SDS011;15787;49.662;10.162;2024-02-26T11:13:05;8.07;;;5.40;;
28587;SDS011;15787;49.662;10.162;2024-02-26T11:15:42;11.45;;;5.90;;
28587;SDS011;15787;49.662;10.162;2024-02-26T11:18:18;9.80;;;5.28;;
28587;SDS011;15787;49.662;10.162;2024-02-26T11:20:54;9.95;;;5.38;;
28587;SDS011;15787;49.662;10.162;2024-02-26T11:23:29;7.60;;;4.68;;
28587;SDS011;15787;49.662;10.162;2024-02-26T11:26:04;10.95;;;4.93;;
28587;SDS011;15787;49.662;10.162;2024-02-26T11:28:38;8.52;;;4.65;;
28587;SDS011;15787;49.662;10.162;2024-02-26T11:31:12;8.80;;;4.55;;
28587;SDS011;15787;49.662;10.162;2024-02-26T11:33:45;8.63;;;4.88;;
28587;SDS011;15787;49.662;10.162;2024-02-26T11:36:21;8.15;;;4.72;;
28587;SDS011;15787;49.662;10.162;2024-02-26T11:38:56;7.88;;;4.40;;
28587;SDS011;15787;49.662;10.162;2024-02-26T11:41:30;8.90;;;4.57;;
28587;SDS011;15787;49.662;10.162;2024-02-26T11:44:03;8.65;;;4.55;;
28587;SDS011;15787;49.662;10.162;2024-02-26T11:46:39;8.70;;;4.57;;
28587;SDS011;15787;49.662;10.162;2024-02-26T11:49:30;8.50;;;4.85;;
28587;SDS011;15787;49.662;10.162;2024-02-26T11:52:06;6.85;;;4.45;;
28587;SDS011;15787;49.662;10.162;2024-02-26T11:54:43;8.00;;;3.97;;
28587;SDS011;15787;49.662;10.162;2024-02-26T11:57:21;7.57;;;4.22;;
28587;SDS011;15787;49.662;10.162;2024-02-26T12:00:10;8.25;;;3.80;;
28587;SDS011;15787;49.662;10.162;2024-02-26T12:02:45;6.28;;;3.97;;
28587;SDS011;15787;49.662;10.162;2024-02-26T12:05:19;6.00;;;3.50;;
28587;SDS011;15787;49.662;10.162;2024-02-26T12:07:59;6.78;;;3.38;;
28587;SDS011;15787;49.662;10.162;2024-02-26T12:10:40;6.13;;;3.30;;
28587;SDS011;15787;49.662;10.162;2024-02-26T12:13:15;5.05;;;2.70;;
28587;SDS011;15787;49.662;10.162;2024-02-26T12:15:54;6.38;;;2.90;;
28587;SDS011;15787;49.662;10.162;2024-02-26T12:18:29;5.45;;;2.92;;
28587;SDS011;15787;49.662;10.162;2024-02-26T12:21:03;5.78;;;3.08;;
28587;SDS011;15787;49.662;10.162;2024-02-26T12:23:38;4.60;;;2.72;;
28587;SDS011;15787;49.662;10.162;2024-02-26T12:26:11;4.70;;;2.88;;
28587;SDS011;15787;49.662;10.162;2024-02-26T12:28:46;4.68;;;2.53;;
28587;SDS011;15787;49.662;10.162;2024-02-26T12:31:19;7.70;;;2.45;;
28587;SDS011;15787;49.662;10.162;2024-02-26T12:33:52;4.07;;;2.40;;
28587;SDS011;15787;49.662;10.162;2024-02-26T12:36:26;4.65;;;2.58;;
28587;SDS011;15787;49.662;10.162;2024-02-26T12:39:01;3.58;;;2.35;;
28587;SDS011;15787;49.662;10.162;2024-02-26T12:41:37;3.95;;;2.28;;
28587;SDS011;15787;49.662;10.162;2024-02-26T12:44:11;5.22;;;2.70;;
28587;SDS011;15787;49.662;10.162;2024-02-26T12:46:45;5.43;;;3.10;;
28587;SDS011;15787;49.662;10.162;2024-02-26T12:49:18;4.00;;;2.58;;
28587;SDS011;15787;49.662;10.162;2024-02-26T12:51:51;4.72;;;2.60;;
28587;SDS011;15787;49.662;10.162;2024-02-26T12:54:25;4.63;;;2.65;;
28587;SDS011;15787;49.662;10.162;2024-02-26T12:56:58;4.10;;;2.28;;
28587;SDS011;15787;49.662;10.162;2024-02-26T12:59:33;4.35;;;2.10;;
28587;SDS011;15787;49.662;10.162;2024-02-26T13:02:07;4.43;;;2.47;;
28587;SDS011;15787;49.662;10.162;2024-02-26T13:04:41;6.38;;;2.90;;
28587;SDS011;15787;49.662;10.162;2024-02-26T13:07:15;3.63;;;2.20;;
28587;SDS011;15787;49.662;10.162;2024-02-26T13:09:50;4.05;;;2.50;;
28587;SDS011;15787;49.662;10.162;2024-02-26T13:12:24;5.38;;;2.70;;
28587;SDS011;15787;49.662;10.162;2024-02-26T13:15:00;6.75;;;2.92;;
28587;SDS011;15787;49.662;10.162;2024-02-26T13:17:33;4.22;;;2.67;;
28587;SDS011;15787;49.662;10.162;2024-02-26T13:20:08;4.22;;;2.33;;
28587;SDS011;15787;49.662;10.162;2024-02-26T13:22:42;4.85;;;2.67;;
28587;SDS011;15787;49.662;10.162;2024-02-26T13:25:19;4.32;;;2.60;;
28587;SDS011;15787;49.662;10.162;2024-02-26T13:27:53;4.50;;;2.25;;
28587;SDS011;15787;49.662;10.162;2024-02-26T13:30:38;5.13;;;2.10;;
28587;SDS011;15787;49.662;10.162;2024-02-26T13:33:12;4.95;;;2.38;;
28587;SDS011;15787;49.662;10.162;2024-02-26T13:35:45;4.53;;;2.45;;
28587;SDS011;15787;49.662;10.162;2024-02-26T13:38:18;4.68;;;2.20;;
28587;SDS011;15787;49.662;10.162;2024-02-26T13:40:53;4.53;;;2.28;;
28587;SDS011;15787;49.662;10.162;2024-02-26T13:43:26;4.85;;;2.60;;
28587;SDS011;15787;49.662;10.162;2024-02-26T13:45:59;4.22;;;2.40;;
28587;SDS011;15787;49.662;10.162;2024-02-26T13:48:32;4.53;;;2.22;;
28587;SDS011;15787;49.662;10.162;2024-02-26T13:51:05;4.25;;;2.35;;
28587;SDS011;15787;49.662;10.162;2024-02-26T13:53:39;5.57;;;2.15;;
28587;SDS011;15787;49.662;10.162;2024-02-26T13:56:13;7.45;;;2.88;;
28587;SDS011;15787;49.662;10.162;2024-02-26T13:58:46;4.18;;;2.35;;
28587;SDS011;15787;49.662;10.162;2024-02-26T14:01:19;4.25;;;2.20;;
28587;SDS011;15787;49.662;10.162;2024-02-26T14:03:53;8.25;;;2.53;;
28587;SDS011;15787;49.662;10.162;2024-02-26T14:06:29;6.75;;;2.90;;
28587;SDS011;15787;49.662;10.162;2024-02-26T14:09:03;4.22;;;1.92;;
28587;SDS011;15787;49.662;10.162;2024-02-26T14:11:38;6.60;;;2.15;;
28587;SDS011;15787;49.662;10.162;2024-02-26T14:14:14;4.07;;;2.15;;
28587;SDS011;15787;49.662;10.162;2024-02-26T14:16:47;4.10;;;2.10;;
28587;SDS011;15787;49.662;10.162;2024-02-26T14:19:23;4.40;;;2.47;;
28587;SDS011;15787;49.662;10.162;2024-02-26T14:21:56;3.72;;;2.40;;
28587;SDS011;15787;49.662;10.162;2024-02-26T14:24:29;5.65;;;2.63;;
28587;SDS011;15787;49.662;10.162;2024-02-26T14:27:04;5.38;;;2.47;;
28587;SDS011;15787;49.662;10.162;2024-02-26T14:29:38;4.60;;;2.40;;
28587;SDS011;15787;49.662;10.162;2024-02-26T14:32:13;5.72;;;2.28;;
28587;SDS011;15787;49.662;10.162;2024-02-26T14:34:46;5.05;;;2.83;;
28587;SDS011;15787;49.662;10.162;2024-02-26T14:37:20;2.97;;;1.95;;
28587;SDS011;15787;49.662;10.162;2024-02-26T14:39:53;3.92;;;2.30;;
28587;SDS011;15787;49.662;10.162;2024-02-26T14:42:27;3.60;;;2.03;;
28587;SDS011;15787;49.662;10.162;2024-02-26T14:45:01;5.57;;;1.83;;
28587;SDS011;15787;49.662;10.162;2024-02-26T14:47:34;4.10;;;2.15;;
28587;SDS011;15787;49.662;10.162;2024-02-26T14:50:08;3.08;;;1.90;;
28587;SDS011;15787;49.662;10.162;2024-02-26T14:52:41;6.13;;;2.38;;
28587;SDS011;15787;49.662;10.162;2024-02-26T14:55:14;4.70;;;2.03;;
28587;SDS011;15787;49.662;10.162;2024-02-26T14:57:48;4.47;;;2.15;;
28587;SDS011;15787;49.662;10.162;2024-02-26T15:00:22;3.00;;;1.88;;
28587;SDS011;15787;49.662;10.162;2024-02-26T15:02:55;4.97;;;2.40;;
28587;SDS011;15787;49.662;10.162;2024-02-26T15:05:28;5.03;;;2.72;;